Gotha, Florida
Current Conditions -  °F | °C
As of 4:53 AM on Saturday 29 Nov 2014 (Local Time) from KORL Reporting Station
Clear Clear  
Wind Chill: 47°   Ceiling: Unl
Heat Index: 49°   Visibility: 10mi
Dew Point: 44°   Wind: 5mph
Humidity: 83%   Direction: 360°N
Pressure: 30.27"   Gusts: NA
Location:  28.53°N, 81.52°W
Report Text: KORL 290953Z AUTO 36004KT 10SM CLR 09/07 A3027 RMK AO2 SLP254 T00940067
Loading
Personal Weather Stations






























Interactive Weather Map New forecast layout! Learn more

10-Day Weather Forecast

Advertisements
Track Severe Weather on mobile